Time;durP1;ratioP1;P1;durP2;ratioP2;P2;SDS_P1;SDS_P2;PMS_P1;PMS_P2;Temp;Humidity;BMP_temperature;BMP_pressure;BME280_temperature;BME280_humidity;BME280_pressure;Samples;Min_cycle;Max_cycle;Signal;HPM_P1;HPM_P2
2022/07/27 00:00:58;;;;;;;3.07;2.20;;;20.60;93.00;;;;;;6069178;23;20550;-74
2022/07/27 00:03:25;;;;;;;2.77;2.30;;;20.60;93.20;;;;;;6056078;23;20445;-74
2022/07/27 00:05:52;;;;;;;3.90;2.33;;;20.60;93.40;;;;;;6058084;23;20448;-73
2022/07/27 00:08:21;;;;;;;2.33;1.93;;;20.60;93.60;;;;;;6062366;23;20473;-74
2022/07/27 00:10:49;;;;;;;3.03;2.20;;;20.60;93.90;;;;;;6061975;23;20424;-74
2022/07/27 00:13:16;;;;;;;2.67;2.47;;;20.50;94.10;;;;;;6060028;23;20447;-74
2022/07/27 00:15:44;;;;;;;2.10;1.90;;;20.50;94.30;;;;;;6059948;23;20494;-74
2022/07/27 00:18:11;;;;;;;2.50;2.30;;;20.50;94.50;;;;;;6058737;23;20433;-73
2022/07/27 00:20:40;;;;;;;3.03;2.73;;;20.50;94.70;;;;;;6060922;23;20516;-74
2022/07/27 00:23:07;;;;;;;2.57;2.37;;;20.50;95.00;;;;;;6060580;23;20442;-74
2022/07/27 00:25:35;;;;;;;2.70;2.50;;;20.50;95.10;;;;;;6061384;23;20464;-74
2022/07/27 00:28:04;;;;;;;3.37;3.10;;;20.50;95.60;;;;;;6059742;23;20442;-74
2022/07/27 00:30:31;;;;;;;2.93;2.60;;;20.50;95.50;;;;;;6065306;23;20444;-74
2022/07/27 00:32:59;;;;;;;3.33;3.03;;;20.50;95.50;;;;;;6068752;23;20937;-73
2022/07/27 00:35:26;;;;;;;3.20;2.90;;;20.50;95.80;;;;;;6069697;23;20500;-74
2022/07/27 00:37:53;;;;;;;7.50;6.80;;;20.70;95.90;;;;;;6056481;23;20440;-74
2022/07/27 00:40:20;;;;;;;3.70;3.40;;;20.50;96.00;;;;;;6083512;23;20922;-74
2022/07/27 00:42:47;;;;;;;3.30;3.00;;;20.50;95.90;;;;;;6058372;23;20535;-74
2022/07/27 00:45:16;;;;;;;3.67;3.07;;;20.60;96.00;;;;;;6082168;23;20450;-74
2022/07/27 00:47:43;;;;;;;2.40;2.20;;;20.60;96.00;;;;;;6059063;23;20950;-74
2022/07/27 00:50:11;;;;;;;3.03;2.70;;;20.60;96.10;;;;;;6066496;23;20436;-74
2022/07/27 00:52:40;;;;;;;3.13;2.80;;;20.60;96.20;;;;;;6071723;23;20481;-74
2022/07/27 00:55:08;;;;;;;2.67;2.43;;;20.60;96.30;;;;;;6064550;23;20502;-74
2022/07/27 00:57:35;;;;;;;3.80;2.90;;;20.60;96.30;;;;;;6056382;23;20463;-74
2022/07/27 01:00:02;;;;;;;3.60;3.10;;;20.60;96.40;;;;;;6062022;23;20937;-74
2022/07/27 01:02:30;;;;;;;3.23;2.93;;;20.60;96.50;;;;;;6062752;23;20434;-74
2022/07/27 01:04:58;;;;;;;3.47;2.50;;;20.50;96.60;;;;;;6059838;23;20493;-74
2022/07/27 01:07:26;;;;;;;3.50;3.00;;;20.50;96.70;;;;;;6067323;23;20813;-74
2022/07/27 01:09:56;;;;;;;3.00;2.80;;;20.50;96.80;;;;;;6060627;23;20443;-73
2022/07/27 01:12:24;;;;;;;2.77;2.57;;;20.60;96.90;;;;;;6068641;23;20474;-74
2022/07/27 01:14:52;;;;;;;3.47;2.90;;;20.60;97.00;;;;;;6066801;23;20527;-74
2022/07/27 01:17:19;;;;;;;2.80;2.60;;;20.50;97.00;;;;;;6060561;23;20441;-75
2022/07/27 01:19:48;;;;;;;2.67;2.47;;;20.60;97.20;;;;;;6072561;23;20492;-74
2022/07/27 01:22:17;;;;;;;4.13;2.73;;;20.60;97.30;;;;;;6069749;23;20936;-74
2022/07/27 01:24:44;;;;;;;2.87;2.67;;;20.50;97.30;;;;;;6063759;23;21030;-74
2022/07/27 01:27:12;;;;;;;2.93;2.67;;;20.50;97.50;;;;;;6061199;23;20939;-74
2022/07/27 01:29:39;;;;;;;3.30;2.87;;;20.50;97.50;;;;;;6059752;23;20530;-75
2022/07/27 01:32:07;;;;;;;2.60;2.40;;;20.50;97.80;;;;;;6064418;23;20430;-74
2022/07/27 01:34:34;;;;;;;3.00;2.70;;;20.50;97.80;;;;;;6057879;23;20531;-74
2022/07/27 01:37:02;;;;;;;3.10;2.90;;;20.40;97.90;;;;;;6059783;23;20455;-74
2022/07/27 01:39:31;;;;;;;4.13;2.80;;;20.30;98.10;;;;;;6069225;23;20492;-74
2022/07/27 01:41:59;;;;;;;3.03;2.80;;;20.30;98.30;;;;;;6058845;23;20439;-76
2022/07/27 01:44:27;;;;;;;4.33;3.20;;;20.20;98.50;;;;;;6066340;23;20504;-74
2022/07/27 01:46:54;;;;;;;3.20;3.00;;;20.10;98.70;;;;;;6066404;23;20518;-74
2022/07/27 01:49:21;;;;;;;3.60;3.30;;;20.10;98.90;;;;;;6060916;23;20445;-73
2022/07/27 01:51:48;;;;;;;4.33;3.00;;;20.00;99.10;;;;;;6060015;23;20824;-73
2022/07/27 01:54:15;;;;;;;3.10;2.80;;;20.00;99.40;;;;;;6061379;23;20525;-73
2022/07/27 01:56:44;;;;;;;3.40;3.10;;;19.90;99.50;;;;;;6063722;23;20501;-73
2022/07/27 01:59:11;;;;;;;4.17;3.13;;;19.90;99.80;;;;;;6056076;23;20489;-73
2022/07/27 02:01:38;;;;;;;3.53;3.10;;;19.90;99.90;;;;;;6065703;23;20840;-73
2022/07/27 02:04:05;;;;;;;3.00;2.73;;;19.90;99.90;;;;;;6059286;23;20547;-73
2022/07/27 02:06:32;;;;;;;3.83;3.37;;;19.90;99.90;;;;;;6059459;23;20435;-73
2022/07/27 02:08:59;;;;;;;3.07;2.83;;;19.90;99.90;;;;;;6058323;23;20445;-73
2022/07/27 02:14:12;;;;;;;3.07;2.80;;;19.80;99.90;;;;;;6064104;23;20454;-73
2022/07/27 02:16:39;;;;;;;3.50;3.00;;;19.80;99.90;;;;;;6060894;23;20528;-73
2022/07/27 02:19:06;;;;;;;3.00;2.80;;;19.70;99.90;;;;;;6060266;23;20436;-73
2022/07/27 02:21:33;;;;;;;3.07;2.87;;;19.70;99.90;;;;;;6067470;23;20435;-73
2022/07/27 02:24:00;;;;;;;5.27;3.43;;;19.60;99.90;;;;;;6077916;23;21021;-73
2022/07/27 02:26:27;;;;;;;3.73;3.30;;;19.60;99.90;;;;;;6069067;23;20946;-73
2022/07/27 02:28:54;;;;;;;3.10;2.83;;;19.60;99.90;;;;;;6054862;23;20479;-73
2022/07/27 02:31:24;;;;;;;3.13;2.87;;;19.60;99.90;;;;;;6061895;23;20827;-73
2022/07/27 02:33:51;;;;;;;4.47;3.80;;;19.60;99.90;;;;;;6052804;23;20454;-73
2022/07/27 02:36:17;;;;;;;6.40;5.80;;;19.60;99.90;;;;;;6049769;23;20471;-73
2022/07/27 02:38:45;;;;;;;4.70;3.10;;;19.60;99.90;;;;;;6066332;23;20445;-73
2022/07/27 02:41:12;;;;;;;3.37;3.03;;;19.60;99.90;;;;;;6067925;23;20446;-73
2022/07/27 02:43:39;;;;;;;5.53;3.20;;;19.50;99.90;;;;;;6060714;23;20435;-73
2022/07/27 02:46:06;;;;;;;3.90;3.50;;;19.40;99.90;;;;;;6060927;23;20439;-73
2022/07/27 02:48:34;;;;;;;3.10;2.90;;;19.40;99.90;;;;;;6082178;23;20438;-73
2022/07/27 02:51:01;;;;;;;3.97;3.57;;;19.30;99.90;;;;;;6063358;23;20561;-73
2022/07/27 02:53:29;;;;;;;3.47;3.13;;;19.30;99.90;;;;;;6072372;23;20450;-73
2022/07/27 02:55:56;;;;;;;3.53;3.23;;;19.20;99.90;;;;;;6060170;23;20517;-73
2022/07/27 02:58:23;;;;;;;3.97;3.67;;;19.20;99.90;;;;;;6059749;23;20838;-73
2022/07/27 03:00:51;;;;;;;4.83;4.30;;;19.30;99.90;;;;;;6061326;23;20478;-73
2022/07/27 03:03:18;;;;;;;4.10;3.80;;;19.10;99.90;;;;;;6070036;23;20450;-73
2022/07/27 03:05:47;;;;;;;4.70;4.20;;;19.10;99.90;;;;;;6075044;23;20470;-73
2022/07/27 03:08:14;;;;;;;3.80;3.50;;;19.10;99.90;;;;;;6062665;23;20439;-72
2022/07/27 03:10:41;;;;;;;4.03;3.73;;;19.10;99.90;;;;;;6064374;23;20461;-72
2022/07/27 03:13:08;;;;;;;3.33;3.03;;;19.10;99.90;;;;;;6060841;23;20984;-72
2022/07/27 03:15:35;;;;;;;4.37;4.07;;;19.10;99.90;;;;;;6080247;23;20498;-72
2022/07/27 03:18:02;;;;;;;4.20;3.80;;;19.10;99.90;;;;;;6064841;23;20493;-73
2022/07/27 03:20:29;;;;;;;3.97;3.57;;;19.00;99.90;;;;;;6067482;23;20436;-73
2022/07/27 03:22:58;;;;;;;3.90;3.60;;;19.00;99.90;;;;;;6059743;23;20493;-73
2022/07/27 03:25:25;;;;;;;4.27;3.87;;;19.00;99.90;;;;;;6061863;23;20536;-73
2022/07/27 03:27:52;;;;;;;4.00;3.60;;;18.90;99.90;;;;;;6061552;23;20437;-73
2022/07/27 03:30:19;;;;;;;4.17;3.83;;;19.00;99.90;;;;;;6061599;23;20440;-73
2022/07/27 03:32:47;;;;;;;4.37;3.97;;;18.80;99.90;;;;;;6060162;23;20468;-73
2022/07/27 03:35:14;;;;;;;4.67;4.17;;;18.80;99.90;;;;;;6066990;23;20453;-73
2022/07/27 03:37:42;;;;;;;4.10;3.80;;;18.80;99.90;;;;;;6064006;23;20470;-73
2022/07/27 03:40:11;;;;;;;4.27;3.87;;;18.70;99.90;;;;;;6064308;23;20435;-73
2022/07/27 03:42:39;;;;;;;4.13;3.83;;;18.70;99.90;;;;;;6063203;23;20558;-73
2022/07/27 03:45:08;;;;;;;4.27;3.70;;;18.70;99.90;;;;;;6068068;23;20472;-73
2022/07/27 03:47:35;;;;;;;3.73;3.30;;;18.70;99.90;;;;;;6053576;23;20496;-73
2022/07/27 03:50:02;;;;;;;5.00;3.97;;;18.70;99.90;;;;;;6059918;23;20501;-73
2022/07/27 03:52:29;;;;;;;4.73;4.20;;;18.70;99.90;;;;;;6060696;23;20447;-73
2022/07/27 03:54:56;;;;;;;3.90;3.50;;;18.70;99.90;;;;;;6063989;23;20520;-73
2022/07/27 03:57:25;;;;;;;3.37;3.17;;;18.70;99.90;;;;;;6054146;23;20471;-73
2022/07/27 03:59:53;;;;;;;3.97;3.57;;;18.60;99.90;;;;;;6064444;23;20514;-75
2022/07/27 04:02:20;;;;;;;4.80;4.50;;;18.60;99.90;;;;;;6071826;23;20436;-73
2022/07/27 04:04:46;;;;;;;4.13;3.83;;;18.60;99.90;;;;;;6068182;23;20454;-73
2022/07/27 04:07:14;;;;;;;4.57;4.23;;;18.60;99.90;;;;;;6060659;23;20972;-72
2022/07/27 04:09:41;;;;;;;4.83;4.43;;;18.60;99.90;;;;;;6070113;23;20435;-72
2022/07/27 04:12:08;;;;;;;4.60;4.30;;;18.80;99.90;;;;;;6061449;23;20471;-73
2022/07/27 04:14:37;;;;;;;4.60;4.17;;;18.60;99.90;;;;;;6075379;23;20487;-73
2022/07/27 04:17:04;;;;;;;4.77;4.23;;;18.60;99.90;;;;;;6058020;23;20499;-73
2022/07/27 04:19:31;;;;;;;5.57;4.00;;;18.60;99.90;;;;;;6054308;23;20432;-73
2022/07/27 04:21:58;;;;;;;4.27;3.97;;;18.60;99.90;;;;;;6067866;23;20877;-72
2022/07/27 04:24:25;;;;;;;5.07;4.20;;;18.60;99.90;;;;;;6068698;23;20467;-72
2022/07/27 04:26:52;;;;;;;4.70;4.30;;;18.60;99.90;;;;;;6071813;23;20470;-73
2022/07/27 04:29:19;;;;;;;3.97;3.67;;;18.80;99.90;;;;;;6060822;23;20435;-72
2022/07/27 04:31:48;;;;;;;4.10;3.80;;;18.70;99.90;;;;;;6069718;23;20488;-72
2022/07/27 04:34:15;;;;;;;5.93;4.50;;;18.70;99.90;;;;;;6064856;23;20518;-73
2022/07/27 04:36:42;;;;;;;4.30;3.90;;;18.70;99.90;;;;;;6064442;23;20473;-73
2022/07/27 04:39:09;;;;;;;4.40;4.00;;;18.80;99.90;;;;;;6072439;23;20574;-73
2022/07/27 04:41:36;;;;;;;4.20;3.90;;;18.90;99.90;;;;;;6057984;23;20429;-73
2022/07/27 04:44:04;;;;;;;4.20;3.80;;;18.90;99.90;;;;;;6067596;23;20473;-72
2022/07/27 04:46:31;;;;;;;3.90;3.60;;;18.90;99.90;;;;;;6067100;23;20438;-72
2022/07/27 04:49:00;;;;;;;4.30;3.90;;;19.00;99.90;;;;;;6069262;23;20537;-72
2022/07/27 04:51:27;;;;;;;4.17;3.77;;;19.10;99.90;;;;;;6062817;23;20954;-71
2022/07/27 04:53:54;;;;;;;4.20;3.80;;;19.20;99.90;;;;;;6064292;23;20702;-73
2022/07/27 04:56:21;;;;;;;4.47;4.07;;;19.20;99.90;;;;;;6067147;23;20969;-72
2022/07/27 04:58:48;;;;;;;4.17;3.80;;;19.30;99.90;;;;;;6065931;23;20540;-73
2022/07/27 05:01:15;;;;;;;4.43;4.00;;;19.40;99.90;;;;;;6066724;23;20814;-72
2022/07/27 05:03:42;;;;;;;4.43;4.03;;;19.40;99.90;;;;;;6071926;23;20451;-72
2022/07/27 05:06:11;;;;;;;4.63;4.23;;;19.40;99.90;;;;;;6069038;23;20534;-72
2022/07/27 05:08:38;;;;;;;4.27;3.87;;;19.40;99.90;;;;;;6067978;23;20473;-72
2022/07/27 05:11:05;;;;;;;4.00;3.70;;;19.40;99.90;;;;;;6056934;23;20875;-73
2022/07/27 05:13:32;;;;;;;5.20;3.97;;;19.50;99.90;;;;;;6055323;23;20508;-72
2022/07/27 05:15:59;;;;;;;4.20;3.80;;;19.50;99.90;;;;;;6059754;23;20577;-72
2022/07/27 05:18:26;;;;;;;4.40;4.00;;;19.60;99.90;;;;;;6058653;23;21095;-71
2022/07/27 05:20:53;;;;;;;4.20;3.93;;;19.70;99.90;;;;;;6061355;23;20604;-70
2022/07/27 05:23:22;;;;;;;4.33;3.97;;;19.80;99.90;;;;;;6053956;23;20463;-71
2022/07/27 05:25:49;;;;;;;4.20;3.90;;;19.80;99.90;;;;;;6054300;23;20513;-71
2022/07/27 05:28:16;;;;;;;4.17;3.83;;;19.80;99.90;;;;;;6050127;23;20449;-71
2022/07/27 05:30:43;;;;;;;3.87;3.57;;;19.80;99.90;;;;;;6048046;23;20436;-72
2022/07/27 05:33:10;;;;;;;5.47;4.60;;;19.90;99.90;;;;;;6052629;23;20432;-71
2022/07/27 05:35:37;;;;;;;4.43;4.03;;;19.90;99.90;;;;;;6053314;23;20478;-71
2022/07/27 05:38:05;;;;;;;6.27;4.47;;;19.90;99.90;;;;;;6054180;23;20549;-71
2022/07/27 05:40:33;;;;;;;4.67;4.33;;;19.90;99.90;;;;;;6052370;23;20846;-71
2022/07/27 05:43:00;;;;;;;4.10;3.70;;;19.90;99.90;;;;;;6061155;23;20439;-73
2022/07/27 05:45:28;;;;;;;4.33;3.93;;;20.00;99.90;;;;;;6058556;23;20453;-72
2022/07/27 05:47:57;;;;;;;4.70;4.20;;;20.00;99.90;;;;;;6053856;23;20523;-72
2022/07/27 05:50:25;;;;;;;4.67;4.23;;;20.10;99.90;;;;;;6056664;23;20481;-72
2022/07/27 05:52:52;;;;;;;4.80;4.40;;;20.10;99.90;;;;;;6054014;23;20846;-72
2022/07/27 05:55:19;;;;;;;4.40;4.00;;;20.20;99.90;;;;;;6055334;23;20467;-71
2022/07/27 05:57:47;;;;;;;5.20;4.40;;;20.20;99.90;;;;;;6054609;23;20463;-71
2022/07/27 06:00:15;;;;;;;6.23;4.10;;;20.30;99.90;;;;;;6062360;23;20441;-72
2022/07/27 06:02:42;;;;;;;4.30;3.80;;;20.30;99.90;;;;;;6056552;23;20459;-72
2022/07/27 06:05:10;;;;;;;4.00;3.67;;;20.40;99.90;;;;;;6055086;23;20975;-71
2022/07/27 06:10:22;;;;;;;4.60;3.80;;;20.50;99.90;;;;;;6061186;23;20478;-72
2022/07/27 06:12:50;;;;;;;3.27;3.07;;;20.60;99.90;;;;;;6054565;23;20448;-72
2022/07/27 06:15:18;;;;;;;5.03;4.03;;;20.70;99.90;;;;;;6056071;23;20435;-72
2022/07/27 06:17:48;;;;;;;11.00;5.27;;;20.80;99.90;;;;;;6053724;23;21069;-72
2022/07/27 06:20:15;;;;;;;4.97;4.37;;;20.90;99.90;;;;;;6059765;23;20511;-72
2022/07/27 06:22:47;;;;;;;3.90;3.50;;;20.90;99.90;;;;;;6052190;23;20446;-72
2022/07/27 06:27:53;;;;;;;4.00;3.70;;;21.10;99.90;;;;;;5327397;22;20571;-72
2022/07/27 06:30:21;;;;;;;13.03;5.30;;;21.10;99.90;;;;;;5017374;28;20951;-71
2022/07/27 06:32:48;;;;;;;10.47;5.20;;;21.10;99.90;;;;;;5015302;28;20468;-70
2022/07/27 06:35:16;;;;;;;6.23;4.30;;;21.20;99.90;;;;;;5015342;28;20561;-71
2022/07/27 06:37:43;;;;;;;4.40;3.67;;;21.30;99.90;;;;;;5014544;28;20492;-70
2022/07/27 06:40:12;;;;;;;3.70;3.40;;;21.30;99.90;;;;;;5013249;28;20459;-73
2022/07/27 06:42:39;;;;;;;3.87;3.53;;;21.40;99.90;;;;;;5013589;28;20459;-73
2022/07/27 06:45:10;;;;;;;3.23;2.93;;;21.40;99.90;;;;;;5011023;28;21259;-73
2022/07/27 06:47:38;;;;;;;4.00;3.60;;;21.40;99.90;;;;;;5012147;28;21842;-73
2022/07/27 06:50:06;;;;;;;3.30;3.10;;;21.50;99.90;;;;;;5011526;28;20954;-74
2022/07/27 06:52:34;;;;;;;3.40;3.20;;;21.40;99.90;;;;;;5012420;28;20468;-74
2022/07/27 06:55:01;;;;;;;3.97;3.67;;;21.80;99.90;;;;;;5013710;28;20475;-74
2022/07/27 06:57:28;;;;;;;3.93;3.63;;;21.70;99.90;;;;;;5012275;28;20545;-74
2022/07/27 06:59:55;;;;;;;3.77;3.47;;;21.90;99.90;;;;;;5012625;28;20451;-73
2022/07/27 07:02:24;;;;;;;3.80;3.47;;;21.70;99.90;;;;;;5014988;28;20560;-73
2022/07/27 07:04:51;;;;;;;3.40;3.10;;;21.80;99.90;;;;;;5015139;28;20476;-73
2022/07/27 07:07:18;;;;;;;3.40;3.20;;;21.90;99.90;;;;;;5017550;28;20496;-73
2022/07/27 07:09:45;;;;;;;3.80;3.50;;;21.90;99.90;;;;;;5013178;28;20764;-73
2022/07/27 07:12:12;;;;;;;3.60;3.30;;;22.10;99.90;;;;;;5017220;28;20456;-73
2022/07/27 07:14:40;;;;;;;3.47;3.27;;;22.10;99.90;;;;;;5013715;28;20477;-74
2022/07/27 07:17:07;;;;;;;3.83;3.53;;;22.20;99.90;;;;;;5015600;28;20492;-74
2022/07/27 07:19:35;;;;;;;3.20;3.00;;;22.30;99.90;;;;;;5016784;28;20844;-73
2022/07/27 07:22:02;;;;;;;3.77;3.53;;;22.40;99.90;;;;;;5014033;28;20605;-73
2022/07/27 07:24:30;;;;;;;3.13;2.90;;;22.50;99.90;;;;;;5013704;28;20484;-75
2022/07/27 07:26:57;;;;;;;5.07;3.40;;;22.60;99.90;;;;;;5022382;28;20464;-74
2022/07/27 07:29:24;;;;;;;3.80;3.40;;;22.80;99.90;;;;;;5017463;28;20461;-74
2022/07/27 07:31:51;;;;;;;3.50;3.20;;;23.00;99.90;;;;;;5014424;28;20554;-74
2022/07/27 07:34:18;;;;;;;4.63;3.63;;;23.10;99.90;;;;;;5016508;28;21178;-74
2022/07/27 07:36:47;;;;;;;4.33;3.53;;;23.10;99.90;;;;;;5012714;28;20484;-74
2022/07/27 07:39:14;;;;;;;3.10;2.80;;;23.20;99.90;;;;;;5012907;28;20843;-74
2022/07/27 07:41:41;;;;;;;4.33;3.80;;;23.30;99.90;;;;;;5016311;28;20507;-74
2022/07/27 07:44:08;;;;;;;3.60;3.30;;;23.30;99.90;;;;;;5013364;28;20513;-74
2022/07/27 07:46:36;;;;;;;6.23;3.30;;;23.30;99.90;;;;;;5014914;28;20548;-73
2022/07/27 07:49:03;;;;;;;3.50;3.20;;;23.40;99.90;;;;;;5016672;28;20588;-74
2022/07/27 07:51:31;;;;;;;4.70;3.30;;;23.50;99.90;;;;;;5015272;28;20491;-74
2022/07/27 07:53:59;;;;;;;3.80;3.40;;;23.50;99.90;;;;;;5012748;28;20568;-73
2022/07/27 07:56:27;;;;;;;4.10;2.87;;;23.50;99.90;;;;;;5012764;28;20457;-74
2022/07/27 07:58:54;;;;;;;4.13;3.73;;;23.70;99.90;;;;;;5018097;28;20973;-73
2022/07/27 08:01:21;;;;;;;3.13;2.93;;;24.00;99.90;;;;;;5016665;28;20471;-73
2022/07/27 08:03:48;;;;;;;3.13;2.93;;;23.90;99.90;;;;;;5013037;28;21302;-73
2022/07/27 08:06:15;;;;;;;4.10;3.80;;;24.00;99.90;;;;;;5013945;28;20466;-74
2022/07/27 08:08:42;;;;;;;3.90;3.60;;;24.20;99.90;;;;;;5013231;28;20463;-74
2022/07/27 08:11:11;;;;;;;3.47;3.23;;;24.30;99.90;;;;;;5011875;28;20471;-74
2022/07/27 08:13:39;;;;;;;4.30;4.00;;;24.50;99.90;;;;;;5015997;28;20486;-74
2022/07/27 08:16:06;;;;;;;3.20;3.00;;;24.60;99.90;;;;;;5013891;28;20469;-73
2022/07/27 08:18:33;;;;;;;3.10;2.90;;;24.60;99.90;;;;;;5020715;28;20820;-74
2022/07/27 08:21:00;;;;;;;3.67;3.37;;;24.60;99.90;;;;;;5013204;28;20558;-74
2022/07/27 08:23:27;;;;;;;4.47;3.47;;;24.60;99.90;;;;;;5012771;28;20562;-74
2022/07/27 08:25:54;;;;;;;3.30;3.00;;;24.60;99.70;;;;;;5013428;28;20456;-74
2022/07/27 08:28:23;;;;;;;6.13;3.57;;;24.70;99.80;;;;;;5018488;28;20488;-74
2022/07/27 08:30:50;;;;;;;4.17;3.70;;;24.70;99.50;;;;;;5015213;28;20542;-73
2022/07/27 08:33:18;;;;;;;3.57;3.37;;;24.70;99.30;;;;;;5014842;28;20479;-74
2022/07/27 08:35:46;;;;;;;3.23;2.90;;;24.80;99.10;;;;;;5011432;28;20476;-74
2022/07/27 08:38:13;;;;;;;4.50;3.20;;;24.90;99.00;;;;;;5012286;28;20506;-74
2022/07/27 08:40:41;;;;;;;3.17;2.97;;;25.00;98.80;;;;;;5010996;28;20626;-74
2022/07/27 08:43:09;;;;;;;3.17;2.87;;;25.30;98.70;;;;;;5013307;28;20492;-74
2022/07/27 08:45:40;;;;;;;3.20;3.00;;;25.40;98.00;;;;;;5012762;28;20466;-74
2022/07/27 08:48:07;;;;;;;3.20;2.90;;;25.60;98.00;;;;;;5011191;28;20535;-75
2022/07/27 08:50:34;;;;;;;3.17;2.97;;;25.60;97.60;;;;;;5015962;28;20479;-74
2022/07/27 08:53:03;;;;;;;3.00;2.60;;;25.70;97.50;;;;;;5012319;28;20487;-74
2022/07/27 08:55:31;;;;;;;4.10;3.47;;;25.90;97.40;;;;;;5011311;28;20822;-74
2022/07/27 08:57:59;;;;;;;3.63;3.30;;;26.10;96.60;;;;;;5011182;28;21126;-74
2022/07/27 09:00:27;;;;;;;3.77;2.90;;;26.20;96.40;;;;;;5017444;28;20480;-74
2022/07/27 09:02:56;;;;;;;3.87;3.47;;;26.30;96.10;;;;;;5014603;28;20483;-74
2022/07/27 09:05:24;;;;;;;4.03;3.40;;;26.40;95.70;;;;;;5019706;28;20466;-74
2022/07/27 09:07:51;;;;;;;3.93;3.53;;;26.40;95.40;;;;;;5018358;28;20977;-74
2022/07/27 09:10:31;;;;;;;3.57;3.27;;;26.60;95.00;;;;;;5016021;28;20483;-74
2022/07/27 09:12:59;;;;;;;3.17;2.87;;;26.80;95.10;;;;;;5019389;28;20908;-74
2022/07/27 09:15:26;;;;;;;3.83;3.43;;;26.80;94.80;;;;;;5019271;28;20559;-74
2022/07/27 09:17:54;;;;;;;3.90;3.30;;;27.20;94.10;;;;;;5018880;28;21038;-74
2022/07/27 09:20:22;;;;;;;3.97;2.77;;;27.50;93.60;;;;;;5018490;28;20468;-74
2022/07/27 09:22:52;;;;;;;3.60;3.30;;;27.30;93.40;;;;;;5014141;28;20991;-74
2022/07/27 09:25:21;;;;;;;3.00;2.77;;;27.60;93.40;;;;;;5012386;28;20513;-74
2022/07/27 09:27:54;;;;;;;4.17;2.90;;;28.10;92.80;;;;;;5012811;28;20464;-74
2022/07/27 09:30:21;;;;;;;5.03;2.63;;;28.70;91.70;;;;;;5014515;28;20506;-74
2022/07/27 09:32:56;;;;;;;3.53;2.97;;;29.40;91.00;;;;;;5014554;28;20484;-74
2022/07/27 09:35:28;;;;;;;3.33;3.03;;;30.20;88.10;;;;;;5011244;28;20885;-74
2022/07/27 09:37:56;;;;;;;2.90;2.60;;;30.50;84.60;;;;;;5017164;28;20570;-74
2022/07/27 09:40:25;;;;;;;4.00;3.10;;;30.80;83.10;;;;;;5009159;28;20463;-74
2022/07/27 09:43:07;;;;;;;2.90;2.70;;;31.10;81.00;;;;;;5014705;28;21002;-74
2022/07/27 09:45:36;;;;;;;2.47;2.27;;;31.40;80.00;;;;;;5011880;28;20470;-74
2022/07/27 09:48:11;;;;;;;3.70;3.40;;;31.60;79.20;;;;;;5011527;28;20456;-74
2022/07/27 09:50:43;;;;;;;3.80;2.80;;;32.00;76.90;;;;;;5012523;28;21501;-74
2022/07/27 09:53:16;;;;;;;3.00;2.80;;;31.90;76.30;;;;;;5012142;28;20527;-75
2022/07/27 09:55:45;;;;;;;3.23;3.03;;;32.00;75.80;;;;;;5012710;28;20460;-75
2022/07/27 09:58:12;;;;;;;3.53;2.73;;;32.10;74.40;;;;;;5014736;28;20572;-75
2022/07/27 10:00:39;;;;;;;4.20;3.17;;;32.10;74.30;;;;;;5012016;28;20924;-74
2022/07/27 10:03:06;;;;;;;2.83;2.63;;;32.30;72.00;;;;;;5014776;28;20894;-75
2022/07/27 10:05:34;;;;;;;2.70;2.50;;;32.30;72.30;;;;;;5013325;28;20452;-75
2022/07/27 10:08:03;;;;;;;5.37;2.70;;;32.30;71.90;;;;;;5010786;28;20484;-75
2022/07/27 10:10:30;;;;;;;3.53;2.93;;;32.40;71.00;;;;;;5013370;28;20461;-74
2022/07/27 10:12:57;;;;;;;3.00;2.40;;;32.60;70.80;;;;;;5012936;28;20468;-74
2022/07/27 10:15:25;;;;;;;2.90;2.70;;;32.70;70.10;;;;;;5013707;28;20457;-74
2022/07/27 10:18:00;;;;;;;2.93;2.53;;;33.00;68.70;;;;;;5010831;28;20485;-74
2022/07/27 10:20:28;;;;;;;3.87;2.53;;;33.20;67.80;;;;;;5016583;28;20535;-74
2022/07/27 10:22:57;;;;;;;2.63;2.43;;;33.30;67.80;;;;;;4993703;28;20471;-74
2022/07/27 10:25:27;;;;;;;5.80;3.33;;;33.00;66.60;;;;;;5011678;28;20811;-74
2022/07/27 10:28:10;;;;;;;4.10;2.33;;;32.80;67.30;;;;;;5011895;28;20553;-74
2022/07/27 10:30:37;;;;;;;2.63;2.43;;;32.90;67.70;;;;;;5011591;28;20480;-74
2022/07/27 10:33:14;;;;;;;2.70;2.40;;;33.00;66.80;;;;;;5016421;28;20447;-74
2022/07/27 10:35:42;;;;;;;2.90;2.70;;;32.80;65.60;;;;;;5012061;28;20974;-74
2022/07/27 10:38:13;;;;;;;3.30;3.00;;;32.40;65.50;;;;;;5010304;28;20519;-74
2022/07/27 10:40:42;;;;;;;3.20;2.90;;;31.60;65.20;;;;;;5013059;28;20479;-74
2022/07/27 10:43:18;;;;;;;3.10;2.80;;;31.00;66.20;;;;;;5016541;28;20902;-74
2022/07/27 10:45:47;;;;;;;2.60;2.50;;;30.60;68.90;;;;;;5021403;28;20451;-74
2022/07/27 10:48:34;;;;;;;2.37;2.17;;;30.60;68.60;;;;;;5024345;28;20467;-74
2022/07/27 10:51:02;;;;;;;2.60;2.30;;;30.90;69.20;;;;;;5020564;28;20473;-74
2022/07/27 10:53:34;;;;;;;3.27;2.80;;;31.50;68.30;;;;;;5022789;28;20452;-74
2022/07/27 10:56:04;;;;;;;2.43;2.03;;;32.00;65.60;;;;;;5017506;28;20448;-74
2022/07/27 10:58:48;;;;;;;2.73;2.53;;;32.10;61.80;;;;;;5014106;28;20538;-74
2022/07/27 11:01:17;;;;;;;2.70;2.50;;;31.80;62.80;;;;;;5019434;28;20876;-74
2022/07/27 11:03:51;;;;;;;3.10;2.80;;;31.60;62.50;;;;;;5013417;28;20464;-74
2022/07/27 11:06:38;;;;;;;2.80;2.23;;;31.30;62.00;;;;;;5019152;28;20506;-74
2022/07/27 11:09:06;;;;;;;2.57;2.37;;;31.20;63.00;;;;;;5011905;28;20452;-74
2022/07/27 11:11:37;;;;;;;2.30;2.10;;;31.50;61.70;;;;;;5020111;28;20484;-74
2022/07/27 11:14:04;;;;;;;2.67;2.47;;;31.80;60.70;;;;;;5020685;28;21054;-74
2022/07/27 11:16:31;;;;;;;2.13;2.00;;;32.10;59.60;;;;;;5016271;28;20467;-74
2022/07/27 11:19:02;;;;;;;2.50;2.30;;;32.50;58.50;;;;;;5011447;28;20512;-74
2022/07/27 11:21:32;;;;;;;2.90;2.23;;;32.70;59.20;;;;;;5015425;28;20543;-74
2022/07/27 11:24:02;;;;;;;2.83;2.23;;;33.00;59.10;;;;;;5010476;28;20555;-74
2022/07/27 11:26:31;;;;;;;4.80;2.40;;;32.50;59.70;;;;;;5012642;28;20452;-74
2022/07/27 11:28:59;;;;;;;2.57;2.00;;;31.60;61.30;;;;;;5005382;28;21018;-74
2022/07/27 11:31:27;;;;;;;2.47;2.27;;;30.80;62.20;;;;;;5015535;28;20457;-74
2022/07/27 11:33:56;;;;;;;2.70;2.40;;;30.20;63.10;;;;;;5014783;28;20492;-74
2022/07/27 11:36:36;;;;;;;2.63;2.43;;;29.80;63.90;;;;;;5015438;28;20835;-74
2022/07/27 11:39:04;;;;;;;2.37;1.80;;;29.90;64.00;;;;;;5023289;28;21494;-74
2022/07/27 11:41:34;;;;;;;1.90;1.80;;;29.90;63.90;;;;;;5015758;28;22225;-74
2022/07/27 11:44:05;;;;;;;1.90;1.80;;;30.20;63.30;;;;;;5019326;28;20535;-74
2022/07/27 11:46:34;;;;;;;2.00;1.90;;;30.60;62.50;;;;;;5012809;28;20540;-74
2022/07/27 11:49:05;;;;;;;2.17;1.93;;;30.70;61.80;;;;;;5007172;28;21570;-74
2022/07/27 11:51:33;;;;;;;2.00;1.80;;;30.90;60.10;;;;;;5015221;28;20488;-75
2022/07/27 11:54:02;;;;;;;2.13;1.93;;;30.90;59.90;;;;;;5015915;28;20453;-74
2022/07/27 11:56:30;;;;;;;1.93;1.70;;;31.00;60.00;;;;;;5016322;28;20956;-74
2022/07/27 11:59:06;;;;;;;2.50;1.90;;;31.40;59.30;;;;;;5009819;28;20547;-73
2022/07/27 12:01:36;;;;;;;2.47;1.40;;;31.70;57.60;;;;;;5011764;28;20487;-74
2022/07/27 12:04:06;;;;;;;2.40;1.67;;;31.90;57.10;;;;;;5012768;28;20481;-74
2022/07/27 12:06:35;;;;;;;2.30;1.33;;;32.30;56.80;;;;;;5013807;28;20914;-74
2022/07/27 12:09:03;;;;;;;1.93;1.83;;;32.50;56.80;;;;;;5008593;28;20469;-74
2022/07/27 12:11:45;;;;;;;1.67;1.57;;;32.40;57.00;;;;;;5019173;28;20894;-74
2022/07/27 12:14:14;;;;;;;1.60;1.50;;;32.00;57.00;;;;;;5011183;28;20468;-74
2022/07/27 12:16:41;;;;;;;1.70;1.60;;;31.50;58.20;;;;;;5012902;28;20517;-75
2022/07/27 12:19:09;;;;;;;3.97;1.70;;;31.50;58.30;;;;;;5017513;28;20531;-74
2022/07/27 12:21:36;;;;;;;1.70;1.47;;;31.40;58.20;;;;;;5015058;28;20461;-74
2022/07/27 12:24:03;;;;;;;2.43;1.83;;;31.20;59.00;;;;;;5013234;28;20814;-74
2022/07/27 12:26:30;;;;;;;2.03;1.90;;;30.90;58.70;;;;;;5019891;28;20528;-74
2022/07/27 12:29:09;;;;;;;1.77;1.53;;;30.40;59.30;;;;;;5016351;28;20514;-74
2022/07/27 12:31:47;;;;;;;2.30;1.90;;;30.20;60.20;;;;;;5015961;28;20484;-74
2022/07/27 12:34:15;;;;;;;1.93;1.73;;;30.40;60.20;;;;;;5011893;28;20452;-75
2022/07/27 12:36:42;;;;;;;1.60;1.50;;;30.70;59.20;;;;;;5014478;28;20479;-74
2022/07/27 12:39:25;;;;;;;3.07;1.87;;;31.00;59.30;;;;;;5019383;28;20523;-74
2022/07/27 12:42:02;;;;;;;2.00;1.77;;;31.30;58.80;;;;;;5016063;28;20862;-75
2022/07/27 12:44:33;;;;;;;2.23;2.03;;;31.60;58.00;;;;;;5019271;28;20452;-74
2022/07/27 12:47:39;;;;;;;2.97;1.70;;;31.80;58.00;;;;;;5021110;28;21039;-75
2022/07/27 12:50:03;;;;;;;1.83;1.73;;;31.60;57.00;;;;;;5009916;28;20464;-74
2022/07/27 12:52:31;;;;;;;2.00;1.80;;;31.00;57.20;;;;;;5015567;28;20459;-74
2022/07/27 12:54:58;;;;;;;2.50;1.60;;;30.70;58.80;;;;;;5010801;28;20465;-75
2022/07/27 12:57:25;;;;;;;1.80;1.70;;;30.60;58.40;;;;;;5017286;28;20475;-74
2022/07/27 12:59:53;;;;;;;1.60;1.50;;;30.70;58.20;;;;;;5022419;28;20507;-74